Time;durP1;ratioP1;P1;durP2;ratioP2;P2;SDS_P1;SDS_P2;PMS_P1;PMS_P2;Temp;Humidity;BMP_temperature;BMP_pressure;BME280_temperature;BME280_humidity;BME280_pressure;Samples;Min_cycle;Max_cycle;Signal;HPM_P1;HPM_P2
2023/12/27 00:00:17;;;;;;;2.50;0.90;;;;;;;4.87;85.16;99459.77;216354;1270;140289;-67
2023/12/27 00:05:41;;;;;;;1.90;1.00;;;;;;;4.83;85.30;99480.81;217515;1269;141074;-67
2023/12/27 00:10:46;;;;;;;1.50;1.30;;;;;;;4.81;86.04;99491.86;215984;1267;139401;-68
2023/12/27 00:15:51;;;;;;;1.10;0.90;;;;;;;4.77;85.94;99503.27;218032;1267;139079;-68
2023/12/27 00:20:56;;;;;;;3.30;0.90;;;;;;;4.74;85.98;99500.79;216445;1267;328185;-68
2023/12/27 00:26:00;;;;;;;0.80;0.70;;;;;;;4.71;86.00;99512.77;216804;1270;139347;-68
2023/12/27 00:31:04;;;;;;;0.50;0.50;;;;;;;4.67;86.35;99527.86;216781;1267;143287;-68
2023/12/27 00:36:09;;;;;;;0.50;0.50;;;;;;;4.63;86.33;99532.86;216797;1267;139497;-68
2023/12/27 00:41:13;;;;;;;2.00;0.50;;;;;;;4.61;86.37;99541.82;216794;1271;139718;-68
2023/12/27 00:46:17;;;;;;;0.80;0.80;;;;;;;4.58;85.61;99555.04;215985;1268;141244;-67
2023/12/27 00:51:21;;;;;;;2.70;0.90;;;;;;;4.54;85.54;99574.90;216577;1268;139511;-68
2023/12/27 00:56:26;;;;;;;1.90;1.00;;;;;;;4.46;85.77;99580.35;215707;1267;164382;-68
2023/12/27 01:01:30;;;;;;;3.30;1.30;;;;;;;4.43;85.97;99594.55;216636;1267;140295;-68
2023/12/27 01:06:34;;;;;;;1.40;0.90;;;;;;;4.44;86.29;99598.65;215984;1268;139968;-67
2023/12/27 01:11:39;;;;;;;1.90;1.80;;;;;;;4.46;86.29;99611.21;216082;1267;139932;-67
2023/12/27 01:16:43;;;;;;;3.10;1.80;;;;;;;4.43;86.19;99624.92;216137;1270;139620;-67
2023/12/27 01:21:48;;;;;;;0.90;0.90;;;;;;;4.39;86.06;99630.05;215979;1265;139829;-68
2023/12/27 01:26:51;;;;;;;1.20;1.10;;;;;;;4.36;86.30;99638.00;217458;1267;139351;-66
2023/12/27 01:31:56;;;;;;;0.70;0.70;;;;;;;4.31;86.06;99636.27;215954;1271;139111;-66
2023/12/27 01:37:03;;;;;;;1.50;1.00;;;;;;;4.29;86.43;99644.55;216515;1267;140659;-67
2023/12/27 01:42:07;;;;;;;;;;;;;;;4.29;86.87;99646.16;216558;1267;140395;-68
2023/12/27 01:47:13;;;;;;;1.70;1.20;;;;;;;4.32;87.13;99653.77;218061;1268;125701;-69
2023/12/27 01:52:16;;;;;;;3.20;1.30;;;;;;;4.35;86.83;99652.36;217852;1267;139180;-70
2023/12/27 01:57:20;;;;;;;1.80;1.10;;;;;;;4.37;86.72;99656.64;218772;1267;139236;-70
2023/12/27 02:02:24;;;;;;;2.10;1.00;;;;;;;4.38;86.60;99669.56;217914;1268;139858;-70
2023/12/27 02:07:31;;;;;;;0.90;0.90;;;;;;;4.38;86.03;99676.91;215909;1265;153078;-69
2023/12/27 02:12:37;;;;;;;1.60;1.20;;;;;;;4.35;85.37;99680.27;216038;1268;140845;-69
2023/12/27 02:17:42;;;;;;;1.20;1.10;;;;;;;4.28;85.36;99678.16;217330;1265;139536;-69
2023/12/27 02:22:49;;;;;;;1.20;0.70;;;;;;;4.22;85.11;99688.36;216904;1267;139285;-68
2023/12/27 02:27:56;;;;;;;1.60;1.00;;;;;;;4.14;84.86;99702.68;216064;1267;139273;-68
2023/12/27 02:33:02;;;;;;;0.60;0.60;;;;;;;4.03;84.57;99713.73;215543;1271;139134;-67
2023/12/27 02:38:07;;;;;;;1.70;0.90;;;;;;;3.94;84.51;99727.23;217039;1270;140061;-68
2023/12/27 02:43:12;;;;;;;2.50;0.90;;;;;;;3.86;84.28;99737.52;215932;1270;140130;-69
2023/12/27 02:48:17;;;;;;;1.40;1.30;;;;;;;3.77;84.07;99744.28;215532;1268;139764;-68
2023/12/27 02:53:23;;;;;;;0.70;0.70;;;;;;;3.69;83.90;99755.62;216360;1268;140195;-67
2023/12/27 02:58:28;;;;;;;1.60;1.50;;;;;;;3.59;83.89;99765.02;215967;1267;139183;-68
2023/12/27 03:03:32;;;;;;;1.10;0.70;;;;;;;3.54;83.95;99773.00;216801;1265;139487;-67
2023/12/27 03:08:37;;;;;;;1.90;1.10;;;;;;;3.50;84.01;99783.70;215841;1267;140212;-66
2023/12/27 03:13:41;;;;;;;3.60;1.10;;;;;;;3.48;83.94;99787.29;216175;1268;139427;-67
2023/12/27 03:18:46;;;;;;;1.20;1.10;;;;;;;3.46;83.75;99796.88;216556;1269;139853;-72
2023/12/27 03:23:52;;;;;;;1.00;0.50;;;;;;;3.43;83.78;99812.50;216309;1271;141209;-67
2023/12/27 03:28:56;;;;;;;4.70;1.00;;;;;;;3.47;83.93;99820.25;217658;1268;140253;-67
2023/12/27 03:34:01;;;;;;;2.60;0.90;;;;;;;3.48;83.84;99821.67;216593;1271;140218;-67
2023/12/27 03:39:08;;;;;;;4.40;1.50;;;;;;;3.48;83.77;99826.02;217367;1268;140209;-66
2023/12/27 03:44:12;;;;;;;2.50;0.70;;;;;;;3.49;83.63;99832.48;218809;1269;141882;-67
2023/12/27 03:49:17;;;;;;;7.80;1.00;;;;;;;3.49;83.64;99837.58;218677;1267;140797;-67
2023/12/27 03:54:22;;;;;;;0.70;0.70;;;;;;;3.49;83.57;99841.80;217219;1268;139370;-66
2023/12/27 03:59:26;;;;;;;0.60;0.60;;;;;;;3.53;83.54;99845.20;218620;1268;139348;-66
2023/12/27 04:04:30;;;;;;;9.20;1.50;;;;;;;3.55;83.40;99854.04;217879;1268;140299;-68
2023/12/27 04:09:38;;;;;;;3.30;1.50;;;;;;;3.56;83.45;99860.27;216859;1267;139319;-69
2023/12/27 04:14:44;;;;;;;2.10;2.00;;;;;;;3.57;83.37;99862.70;216342;1269;139552;-68
2023/12/27 04:19:49;;;;;;;6.20;1.50;;;;;;;3.58;83.35;99871.39;216171;1271;139644;-68
2023/12/27 04:24:55;;;;;;;1.50;1.10;;;;;;;3.57;83.45;99871.86;215532;1267;139493;-67
2023/12/27 04:30:00;;;;;;;1.00;0.90;;;;;;;3.56;83.36;99869.02;215620;1270;140286;-68
2023/12/27 04:35:06;;;;;;;1.80;1.40;;;;;;;3.54;83.44;99871.02;216164;1268;139417;-68
2023/12/27 04:40:10;;;;;;;3.30;1.20;;;;;;;3.54;83.49;99873.56;215676;1268;141128;-69
2023/12/27 04:45:14;;;;;;;3.90;1.00;;;;;;;3.53;83.51;99884.50;216132;1269;139196;-66
2023/12/27 04:50:19;;;;;;;6.20;1.40;;;;;;;3.55;83.58;99895.48;215710;1271;139637;-66
2023/12/27 04:55:24;;;;;;;7.80;1.10;;;;;;;3.55;83.39;99905.70;217778;1267;140164;-67
2023/12/27 05:00:29;;;;;;;3.50;1.00;;;;;;;3.55;83.21;99904.23;215747;1267;139883;-67
2023/12/27 05:05:35;;;;;;;1.20;0.90;;;;;;;3.56;83.22;99903.64;215883;1268;139858;-67
2023/12/27 05:10:39;;;;;;;2.20;0.90;;;;;;;3.52;82.88;99901.16;216116;1269;139988;-67
2023/12/27 05:15:46;;;;;;;1.50;1.40;;;;;;;3.45;82.78;99910.06;216527;1271;139670;-69
2023/12/27 05:20:50;;;;;;;5.40;0.90;;;;;;;3.43;82.67;99927.23;215842;1269;140207;-69
2023/12/27 05:25:55;;;;;;;3.70;0.70;;;;;;;3.41;82.50;99931.82;215786;1271;140139;-70
2023/12/27 05:30:59;;;;;;;5.50;1.20;;;;;;;3.38;82.71;99945.69;218122;1269;139689;-68
2023/12/27 05:36:04;;;;;;;2.90;0.80;;;;;;;3.37;82.51;99947.86;218499;1268;139775;-68
2023/12/27 05:41:08;;;;;;;3.80;2.40;;;;;;;3.42;82.60;99954.38;218660;1269;139525;-69
2023/12/27 05:46:13;;;;;;;1.50;1.00;;;;;;;3.48;82.53;99959.31;218478;1268;139684;-68
2023/12/27 05:51:16;;;;;;;1.60;0.70;;;;;;;3.51;82.37;99971.41;216567;1268;140476;-70
2023/12/27 05:56:20;;;;;;;1.40;1.30;;;;;;;3.54;82.38;99981.35;215719;1267;139802;-67
2023/12/27 06:01:24;;;;;;;3.90;1.20;;;;;;;3.55;82.46;99991.45;217005;1267;139983;-66
2023/12/27 06:06:32;;;;;;;3.00;1.90;;;;;;;3.56;82.49;99998.57;217863;1267;139145;-67
2023/12/27 06:11:35;;;;;;;0.80;0.60;;;;;;;3.54;82.70;100004.41;215974;1269;139672;-67
2023/12/27 06:16:42;;;;;;;4.70;1.20;;;;;;;3.53;82.65;100025.64;216919;1271;139599;-66
2023/12/27 06:21:46;;;;;;;3.60;2.30;;;;;;;3.50;82.58;100027.42;215579;1271;139493;-66
2023/12/27 06:26:50;;;;;;;1.00;1.00;;;;;;;3.48;82.57;100039.93;215681;1267;139318;-66
2023/12/27 06:31:54;;;;;;;6.20;1.30;;;;;;;3.44;82.55;100049.68;215651;1268;140098;-66
2023/12/27 06:36:58;;;;;;;3.80;1.30;;;;;;;3.45;82.66;100052.38;215743;1268;139616;-66
2023/12/27 06:42:04;;;;;;;2.10;1.80;;;;;;;3.44;82.71;100060.06;215677;1271;139467;-66
2023/12/27 06:47:08;;;;;;;2.90;1.30;;;;;;;3.44;82.63;100071.00;217798;1269;139513;-67
2023/12/27 06:52:12;;;;;;;2.00;1.20;;;;;;;3.40;82.56;100082.98;215801;1269;141326;-66
2023/12/27 06:57:19;;;;;;;6.00;1.70;;;;;;;3.36;82.58;100090.80;215385;1268;139568;-66
2023/12/27 07:02:23;;;;;;;7.50;1.40;;;;;;;3.35;82.39;100097.16;215841;1271;140391;-66
2023/12/27 07:07:28;;;;;;;5.20;1.30;;;;;;;3.31;82.17;100108.73;216186;1271;139676;-67
2023/12/27 07:12:33;;;;;;;1.20;0.80;;;;;;;3.29;82.12;100116.88;215807;1271;139355;-67
2023/12/27 07:17:37;;;;;;;8.70;1.90;;;;;;;3.27;82.19;100119.55;216541;1271;139617;-68
2023/12/27 07:22:43;;;;;;;9.10;1.60;;;;;;;3.28;82.20;100124.52;217147;1267;139843;-70
2023/12/27 07:27:46;;;;;;;3.80;1.50;;;;;;;3.29;82.13;100137.02;217704;1271;140614;-69
2023/12/27 07:32:51;;;;;;;5.90;3.00;;;;;;;3.33;82.20;100145.17;217503;1271;140762;-67
2023/12/27 07:37:55;;;;;;;3.20;1.50;;;;;;;3.38;82.06;100156.50;216131;1269;141447;-67
2023/12/27 07:43:02;;;;;;;3.50;1.40;;;;;;;3.44;81.94;100152.13;218443;1268;139525;-67
2023/12/27 07:48:05;;;;;;;4.30;2.50;;;;;;;3.49;81.86;100165.60;218370;1267;140013;-68
2023/12/27 07:53:09;;;;;;;2.40;1.30;;;;;;;3.55;81.73;100180.73;218226;1267;139772;-66
2023/12/27 07:58:13;;;;;;;2.60;2.10;;;;;;;3.58;81.72;100192.11;217189;1267;140332;-66
2023/12/27 08:03:17;;;;;;;7.70;1.60;;;;;;;3.67;81.83;100198.45;216604;1270;141561;-66
2023/12/27 08:08:21;;;;;;;6.20;3.10;;;;;;;3.74;81.76;100208.14;215970;1269;139424;-65
2023/12/27 08:13:25;;;;;;;5.90;3.50;;;;;;;3.72;81.41;100218.08;216747;1266;139926;-64
2023/12/27 08:18:31;;;;;;;4.00;2.00;;;;;;;3.73;81.61;100223.58;217408;1267;140182;-67
2023/12/27 08:23:38;;;;;;;8.70;2.50;;;;;;;3.81;81.69;100232.64;216561;1271;139397;-66
2023/12/27 08:28:42;;;;;;;9.20;2.70;;;;;;;3.89;81.73;100243.02;216451;1271;139295;-66
2023/12/27 08:33:49;;;;;;;9.60;5.20;;;;;;;3.89;81.55;100256.17;215854;1269;140390;-66
2023/12/27 08:38:54;;;;;;;5.70;2.00;;;;;;;3.88;81.38;100267.39;216216;1271;142121;-66
2023/12/27 08:43:58;;;;;;;3.10;1.50;;;;;;;3.97;81.48;100277.04;217139;1267;140622;-67
2023/12/27 08:49:03;;;;;;;2.30;1.70;;;;;;;4.04;81.15;100290.74;215773;1269;139439;-66
2023/12/27 08:54:07;;;;;;;1.80;1.30;;;;;;;4.05;80.98;100300.73;216815;1267;140461;-67
2023/12/27 08:59:11;;;;;;;4.00;1.50;;;;;;;4.09;80.68;100307.17;216696;1270;139741;-64
2023/12/27 09:04:17;;;;;;;3.50;1.70;;;;;;;4.17;80.97;100309.46;216417;1269;139754;-66
2023/12/27 09:09:27;;;;;;;6.50;1.70;;;;;;;4.25;80.41;100314.75;217012;1267;139810;-65
2023/12/27 09:14:31;;;;;;;4.90;1.40;;;;;;;4.27;80.32;100316.89;216643;1271;140310;-66
2023/12/27 09:19:36;;;;;;;3.20;1.10;;;;;;;4.34;79.99;100320.58;215654;1270;139716;-66
2023/12/27 09:24:41;;;;;;;3.80;1.40;;;;;;;4.37;79.77;100322.79;218212;1268;140540;-66
2023/12/27 09:29:45;;;;;;;210.50;92.60;;;;;;;4.41;79.61;100329.91;217739;1267;141853;-66
2023/12/27 09:34:49;;;;;;;14.50;11.10;;;;;;;4.47;79.42;100327.25;218665;1270;141801;-64
2023/12/27 09:39:53;;;;;;;5.60;3.20;;;;;;;4.50;79.54;100322.18;216257;1267;139526;-66
2023/12/27 09:44:58;;;;;;;2.50;2.30;;;;;;;4.56;79.05;100325.36;216092;1268;141324;-67
2023/12/27 09:50:06;;;;;;;1.40;1.30;;;;;;;4.57;79.24;100328.55;215810;1267;140559;-67
2023/12/27 09:55:10;;;;;;;5.30;1.80;;;;;;;4.57;79.01;100329.80;216210;1267;140356;-64
2023/12/27 10:00:16;;;;;;;4.80;1.70;;;;;;;4.61;79.21;100332.94;215566;1267;139419;-66
2023/12/27 10:05:22;;;;;;;4.90;2.80;;;;;;;4.67;78.70;100328.69;216280;1272;139720;-66
2023/12/27 10:10:27;;;;;;;3.60;2.30;;;;;;;4.77;79.15;100328.25;216751;1270;139430;-67
2023/12/27 10:15:35;;;;;;;3.10;2.00;;;;;;;4.84;78.80;100324.41;216571;1267;139663;-67
2023/12/27 10:20:43;;;;;;;2.70;2.40;;;;;;;4.84;78.26;100321.56;217641;1267;139514;-67
2023/12/27 10:25:47;;;;;;;4.30;1.80;;;;;;;4.88;78.25;100320.20;215671;1268;140466;-66
2023/12/27 10:30:51;;;;;;;8.00;1.90;;;;;;;4.90;78.36;100316.95;216354;1267;139994;-69
2023/12/27 10:35:56;;;;;;;7.80;1.60;;;;;;;4.94;78.26;100307.04;216798;1267;139373;-67
2023/12/27 10:41:05;;;;;;;6.40;2.00;;;;;;;4.89;77.80;100309.91;216816;1267;139657;-66
2023/12/27 10:46:09;;;;;;;;;;;;;;;5.01;78.14;100309.10;216171;1267;139403;-67
2023/12/27 10:51:14;;;;;;;4.00;2.10;;;;;;;5.09;78.13;100302.52;217097;1267;127860;-67
2023/12/27 10:56:19;;;;;;;12.30;2.40;;;;;;;5.06;77.27;100306.76;216085;1267;139904;-67
2023/12/27 11:01:25;;;;;;;8.50;2.00;;;;;;;5.06;77.75;100318.88;215793;1267;139903;-67
2023/12/27 11:06:30;;;;;;;4.20;2.10;;;;;;;5.09;77.30;100332.13;216989;1267;140271;-67
2023/12/27 11:11:39;;;;;;;4.20;2.10;;;;;;;5.05;77.22;100343.33;216882;1269;139214;-66
2023/12/27 11:16:44;;;;;;;5.60;2.60;;;;;;;4.95;77.32;100346.39;216217;1267;139275;-67
2023/12/27 11:21:50;;;;;;;7.50;3.90;;;;;;;4.94;77.59;100346.77;215717;1269;141821;-67
2023/12/27 11:27:00;;;;;;;5.00;3.10;;;;;;;5.05;77.88;100337.73;216532;1267;139927;-66
2023/12/27 11:32:06;;;;;;;3.40;2.50;;;;;;;5.15;77.90;100341.47;218706;1267;139593;-66
2023/12/27 11:37:14;;;;;;;8.50;2.90;;;;;;;5.17;77.03;100334.21;218633;1267;141406;-65
2023/12/27 11:42:17;;;;;;;;;;;;;;;5.11;76.95;100334.10;218517;1266;140302;-70
2023/12/27 11:47:22;;;;;;;7.60;2.50;;;;;;;5.00;76.99;100333.05;217020;1266;126268;-69
2023/12/27 11:52:27;;;;;;;4.90;2.50;;;;;;;4.99;76.84;100338.12;215510;1268;139238;-69
2023/12/27 11:57:30;;;;;;;8.00;2.70;;;;;;;4.90;76.69;100331.10;217022;1271;139248;-69
2023/12/27 12:02:38;;;;;;;10.70;3.50;;;;;;;4.84;76.90;100321.98;216567;1265;139402;-67
2023/12/27 12:08:08;;;;;;;26.80;24.20;;;;;;;4.79;77.03;100319.02;215656;1267;139489;-67
2023/12/27 12:13:11;;;;;;;6.90;5.10;;;;;;;4.85;77.09;100314.91;217387;1267;139992;-67
2023/12/27 12:18:16;;;;;;;4.40;3.60;;;;;;;4.97;77.26;100320.87;216287;1267;139532;-68
2023/12/27 12:23:21;;;;;;;7.70;3.10;;;;;;;4.97;76.73;100323.23;216946;1267;260243;-67
2023/12/27 12:28:24;;;;;;;6.10;2.90;;;;;;;4.80;76.42;100323.37;216336;1267;139664;-67
2023/12/27 12:33:37;;;;;;;7.60;2.90;;;;;;;4.64;76.61;100330.49;215945;1267;139812;-65
2023/12/27 12:38:55;;;;;;;8.80;3.10;;;;;;;4.55;76.65;100339.15;216017;1267;141970;-68
2023/12/27 12:44:00;;;;;;;8.40;3.70;;;;;;;4.50;76.78;100343.30;216227;1267;141802;-67
2023/12/27 12:49:07;;;;;;;3.90;2.70;;;;;;;4.57;77.07;100341.02;216510;1267;139817;-67
2023/12/27 12:54:20;;;;;;;5.90;3.80;;;;;;;4.60;76.71;100337.19;217268;1267;141159;-68
2023/12/27 12:59:40;;;;;;;5.90;3.20;;;;;;;4.48;76.50;100332.92;216594;1265;140367;-68
2023/12/27 13:04:50;;;;;;;9.00;6.20;;;;;;;4.26;76.08;100337.45;217027;1267;140641;-67
2023/12/27 13:09:58;;;;;;;7.10;4.00;;;;;;;4.13;76.58;100335.45;217031;1267;141661;-68
2023/12/27 13:15:04;;;;;;;6.30;3.00;;;;;;;4.15;76.90;100328.91;216154;1267;139349;-70
2023/12/27 13:20:09;;;;;;;5.70;3.40;;;;;;;4.22;77.14;100327.61;216063;1267;139839;-69
2023/12/27 13:25:16;;;;;;;7.20;4.10;;;;;;;4.27;77.04;100323.26;215777;1267;139759;-68
2023/12/27 13:30:20;;;;;;;6.90;3.50;;;;;;;4.27;76.72;100326.51;216988;1267;140363;-69
2023/12/27 13:35:27;;;;;;;5.40;3.60;;;;;;;4.19;76.95;100325.48;218442;1267;141030;-68
2023/12/27 13:40:34;;;;;;;7.60;4.10;;;;;;;4.12;76.75;100330.36;217249;1267;139296;-68
2023/12/27 13:45:38;;;;;;;6.20;4.70;;;;;;;4.00;76.77;100328.37;217592;1267;140077;-69
2023/12/27 13:50:43;;;;;;;4.80;3.40;;;;;;;3.90;76.69;100331.54;215998;1270;139253;-68
2023/12/27 13:55:47;;;;;;;9.00;5.40;;;;;;;3.79;76.76;100332.80;215908;1268;139547;-67
2023/12/27 14:00:51;;;;;;;4.70;3.80;;;;;;;3.70;77.02;100329.35;216006;1267;139285;-67
2023/12/27 14:05:57;;;;;;;9.80;4.30;;;;;;;3.64;77.25;100334.95;216099;1271;139855;-67
2023/12/27 14:11:03;;;;;;;10.10;5.50;;;;;;;3.56;77.36;100338.20;215782;1267;140481;-67
2023/12/27 14:16:07;;;;;;;8.80;5.70;;;;;;;3.46;77.65;100342.17;216364;1267;140264;-68
2023/12/27 14:21:11;;;;;;;9.10;6.50;;;;;;;3.36;77.82;100344.02;216082;1268;139320;-67
2023/12/27 14:26:17;;;;;;;9.10;5.60;;;;;;;3.29;78.04;100346.42;216116;1270;140622;-67
2023/12/27 14:31:21;;;;;;;11.30;4.60;;;;;;;3.21;78.24;100350.15;216171;1267;139576;-66
2023/12/27 14:36:25;;;;;;;12.30;6.00;;;;;;;3.09;78.18;100350.56;215894;1268;139416;-67
2023/12/27 14:41:31;;;;;;;12.50;7.40;;;;;;;2.98;78.55;100351.88;216804;1267;139917;-65
2023/12/27 14:46:35;;;;;;;16.00;9.00;;;;;;;2.89;78.64;100347.05;215880;1267;139737;-67
2023/12/27 14:51:39;;;;;;;17.10;14.90;;;;;;;2.80;78.72;100349.45;216849;1267;139591;-67
2023/12/27 14:56:43;;;;;;;10.90;6.90;;;;;;;2.71;78.70;100355.88;216988;1267;143459;-68
2023/12/27 15:01:47;;;;;;;9.60;6.80;;;;;;;2.64;78.82;100359.14;216397;1267;140047;-66
2023/12/27 15:06:51;;;;;;;8.50;6.70;;;;;;;2.54;78.94;100358.23;217303;1266;139467;-69
2023/12/27 15:11:56;;;;;;;10.70;6.00;;;;;;;2.48;79.27;100356.66;215970;1267;139450;-67
2023/12/27 15:17:01;;;;;;;8.30;5.20;;;;;;;2.40;79.42;100355.28;215873;1267;139571;-67
2023/12/27 15:22:08;;;;;;;11.90;6.40;;;;;;;2.31;79.47;100356.34;217689;1267;140917;-70
2023/12/27 15:27:13;;;;;;;13.50;7.70;;;;;;;2.25;79.81;100356.50;218027;1267;141474;-67
2023/12/27 15:32:18;;;;;;;13.30;6.70;;;;;;;2.22;79.95;100363.34;216254;1271;140191;-66
2023/12/27 15:37:23;;;;;;;13.10;7.30;;;;;;;2.18;80.21;100370.35;216435;1267;140024;-67
2023/12/27 15:42:27;;;;;;;11.10;7.40;;;;;;;2.12;80.25;100366.36;216433;1267;139841;-66
2023/12/27 15:47:32;;;;;;;12.60;8.60;;;;;;;2.09;80.24;100362.71;215992;1267;140428;-66
2023/12/27 15:52:41;;;;;;;11.60;7.40;;;;;;;2.04;80.31;100364.15;216714;1267;140602;-69
2023/12/27 15:57:46;;;;;;;12.60;6.80;;;;;;;1.97;80.39;100367.59;216026;1268;150947;-66
2023/12/27 16:02:50;;;;;;;9.10;5.90;;;;;;;1.87;80.25;100369.02;216729;1268;140404;-67
2023/12/27 16:07:54;;;;;;;11.80;6.80;;;;;;;1.72;80.11;100365.10;215879;1268;140215;-67
2023/12/27 16:12:59;;;;;;;17.40;8.00;;;;;;;1.52;80.23;100362.57;216073;1267;140820;-67
2023/12/27 16:18:04;;;;;;;7.90;4.90;;;;;;;1.36;79.87;100364.20;216248;1268;140028;-66
2023/12/27 16:23:09;;;;;;;11.00;5.60;;;;;;;1.14;79.87;100362.04;215937;1267;140046;-66
2023/12/27 16:28:13;;;;;;;16.10;7.80;;;;;;;1.06;80.85;100363.25;215850;1271;139441;-67
2023/12/27 16:33:18;;;;;;;15.90;8.80;;;;;;;1.02;81.05;100368.70;216015;1268;140632;-66
2023/12/27 16:38:24;;;;;;;15.00;7.40;;;;;;;0.95;80.87;100380.45;216258;1268;141687;-66
2023/12/27 16:43:33;;;;;;;8.70;5.90;;;;;;;0.85;81.08;100392.13;217210;1267;140490;-68
2023/12/27 16:48:43;;;;;;;20.00;6.10;;;;;;;0.80;81.24;100395.84;216861;1267;139730;-68
2023/12/27 16:53:48;;;;;;;11.80;6.10;;;;;;;0.73;81.12;100398.77;216665;1267;139750;-68
2023/12/27 16:58:52;;;;;;;16.40;6.60;;;;;;;0.62;81.30;100407.27;217296;1267;206181;-68
2023/12/27 17:03:58;;;;;;;18.10;10.40;;;;;;;0.52;81.08;100403.44;216597;1267;141154;-66
2023/12/27 17:09:08;;;;;;;13.60;6.90;;;;;;;0.42;81.22;100401.42;217755;1267;140547;-67
2023/12/27 17:14:12;;;;;;;11.20;5.40;;;;;;;0.31;81.32;100405.30;216392;1271;139678;-67
2023/12/27 17:19:16;;;;;;;10.00;6.10;;;;;;;0.15;81.14;100408.00;218472;1267;140000;-67
2023/12/27 17:24:21;;;;;;;14.60;6.40;;;;;;;0.00;81.26;100411.70;216669;1267;139670;-68
2023/12/27 17:29:26;;;;;;;10.10;6.80;;;;;;;-0.08;81.59;100409.02;217248;1270;142361;-68
2023/12/27 17:34:30;;;;;;;14.80;8.10;;;;;;;-0.17;81.42;100406.08;215863;1268;139783;-68
2023/12/27 17:39:35;;;;;;;12.10;7.50;;;;;;;-0.27;81.67;100389.27;216205;1267;139952;-66
2023/12/27 17:44:39;;;;;;;10.40;6.70;;;;;;;-0.38;81.31;100382.66;216723;1267;140963;-68
2023/12/27 17:49:43;;;;;;;28.20;13.20;;;;;;;-0.54;81.84;100389.21;215990;1267;140280;-68
2023/12/27 17:54:48;;;;;;;28.50;13.70;;;;;;;-0.63;82.29;100379.68;216348;1267;246450;-68
2023/12/27 17:59:55;;;;;;;36.60;23.00;;;;;;;-0.66;82.45;100376.11;216387;1267;140077;-69
2023/12/27 18:05:00;;;;;;;63.60;34.20;;;;;;;-0.77;82.30;100381.45;216254;1267;141577;-69
2023/12/27 18:10:06;;;;;;;59.70;29.80;;;;;;;-0.81;83.10;100370.17;215945;1268;140946;-68
2023/12/27 18:15:10;;;;;;;48.90;24.90;;;;;;;-0.82;82.99;100373.73;216971;1267;140347;-67
2023/12/27 18:20:15;;;;;;;37.20;19.60;;;;;;;-0.92;83.01;100373.67;216328;1267;142005;-69
2023/12/27 18:25:19;;;;;;;37.00;18.30;;;;;;;-1.03;83.06;100375.08;216330;1268;141187;-66
2023/12/27 18:30:24;;;;;;;37.40;19.00;;;;;;;-1.09;83.24;100382.77;216151;1270;141566;-66
2023/12/27 18:35:29;;;;;;;30.90;15.40;;;;;;;-1.07;83.87;100386.25;216715;1267;141646;-65
2023/12/27 18:40:33;;;;;;;26.00;14.50;;;;;;;-1.04;84.20;100381.23;215668;1268;139891;-65
2023/12/27 18:45:37;;;;;;;30.70;14.00;;;;;;;-0.99;84.19;100382.42;216072;1269;140244;-66
2023/12/27 18:50:43;;;;;;;37.20;15.90;;;;;;;-0.96;84.49;100380.86;215854;1267;229473;-66
2023/12/27 18:55:47;;;;;;;23.40;13.30;;;;;;;-0.97;84.41;100375.04;218263;1268;140170;-68
2023/12/27 19:00:52;;;;;;;55.60;24.60;;;;;;;-0.99;84.39;100356.23;216300;1268;140413;-66
2023/12/27 19:05:59;;;;;;;41.40;20.80;;;;;;;-0.97;84.43;100352.42;216817;1267;141336;-66
2023/12/27 19:11:04;;;;;;;45.20;25.00;;;;;;;-1.06;84.22;100346.75;218170;1268;140324;-66
2023/12/27 19:16:08;;;;;;;38.90;18.80;;;;;;;-1.12;84.37;100343.85;217752;1267;140597;-66
2023/12/27 19:21:16;;;;;;;68.20;30.20;;;;;;;-1.11;84.87;100339.14;216838;1267;140100;-66
2023/12/27 19:26:21;;;;;;;55.20;27.90;;;;;;;-1.04;85.04;100355.08;216058;1267;140229;-66
2023/12/27 19:31:25;;;;;;;39.70;20.70;;;;;;;-1.06;84.65;100355.84;216768;1268;140020;-66
2023/12/27 19:36:33;;;;;;;35.60;21.50;;;;;;;-1.16;84.32;100345.92;217360;1268;140306;-69
2023/12/27 19:41:38;;;;;;;60.00;27.90;;;;;;;-1.18;85.00;100359.77;216314;1267;140821;-69
2023/12/27 19:46:43;;;;;;;56.90;29.70;;;;;;;-1.15;85.29;100363.98;216351;1268;140235;-67
2023/12/27 19:51:47;;;;;;;63.40;28.60;;;;;;;-1.13;85.11;100348.13;215857;1271;140812;-68
2023/12/27 19:56:52;;;;;;;64.20;29.00;;;;;;;-1.17;85.14;100341.98;215796;1271;140056;-69
2023/12/27 20:01:59;;;;;;;52.70;30.50;;;;;;;-1.21;85.03;100349.27;216485;1267;140254;-68
2023/12/27 20:07:06;;;;;;;43.10;22.90;;;;;;;-1.25;84.97;100343.67;216733;1268;140576;-69
2023/12/27 20:12:11;;;;;;;64.50;30.50;;;;;;;-1.31;85.13;100323.16;215978;1271;139850;-70
2023/12/27 20:17:17;;;;;;;63.60;26.10;;;;;;;-1.29;85.71;100310.77;216554;1269;140099;-67
2023/12/27 20:22:21;;;;;;;53.00;29.10;;;;;;;-1.31;85.62;100305.86;216396;1268;140244;-68
2023/12/27 20:27:25;;;;;;;70.90;27.90;;;;;;;-1.31;86.00;100324.89;216022;1268;141093;-67
2023/12/27 20:32:29;;;;;;;69.30;32.50;;;;;;;-1.28;86.18;100343.10;216391;1268;140835;-67
2023/12/27 20:37:38;;;;;;;70.20;35.80;;;;;;;-1.24;86.19;100334.40;215763;1267;140624;-67
2023/12/27 20:42:42;;;;;;;59.40;32.50;;;;;;;-1.19;86.64;100321.08;217028;1268;140393;-67
2023/12/27 20:47:54;;;;;;;57.30;28.20;;;;;;;-1.15;86.63;100299.94;215866;1271;140886;-66
2023/12/27 20:52:59;;;;;;;56.00;26.00;;;;;;;-1.11;86.88;100284.42;216012;1268;140081;-67
2023/12/27 20:58:03;;;;;;;66.30;31.00;;;;;;;-1.06;86.75;100295.08;216298;1271;139998;-67
2023/12/27 21:03:08;;;;;;;62.40;26.00;;;;;;;-1.03;87.24;100285.89;216175;1271;140063;-68
2023/12/27 21:08:13;;;;;;;60.20;27.20;;;;;;;-1.02;86.89;100281.15;218574;1267;140968;-68
2023/12/27 21:13:16;;;;;;;43.10;23.80;;;;;;;-1.01;86.75;100284.56;218152;1268;140311;-68
2023/12/27 21:18:20;;;;;;;52.10;27.50;;;;;;;-1.02;86.66;100278.15;217363;1267;142184;-68
2023/12/27 21:23:24;;;;;;;60.00;28.70;;;;;;;-1.02;86.84;100281.13;215862;1271;141161;-68
2023/12/27 21:28:31;;;;;;;41.30;22.40;;;;;;;-1.00;86.87;100256.58;216306;1268;140303;-69
2023/12/27 21:33:36;;;;;;;;;;;;;;;-1.05;86.67;100244.89;215907;1271;140449;-67
2023/12/27 21:38:41;;;;;;;43.30;26.30;;;;;;;-1.13;86.98;100244.33;216112;1269;126310;-66
2023/12/27 21:43:45;;;;;;;37.60;23.80;;;;;;;-1.14;87.48;100247.70;216306;1271;140300;-67
2023/12/27 21:48:49;;;;;;;45.10;23.10;;;;;;;-1.14;87.79;100239.52;216683;1268;142221;-67
2023/12/27 21:53:54;;;;;;;48.50;24.20;;;;;;;-1.12;87.97;100230.13;216233;1268;140926;-67
2023/12/27 21:59:01;;;;;;;33.40;20.90;;;;;;;-1.10;87.89;100221.32;215803;1266;140333;-67
2023/12/27 22:04:07;;;;;;;45.90;22.30;;;;;;;-1.05;88.09;100223.52;216047;1269;141066;-67
2023/12/27 22:09:11;;;;;;;47.00;20.70;;;;;;;-1.04;88.25;100220.77;215848;1268;140063;-68
2023/12/27 22:14:15;;;;;;;29.00;16.60;;;;;;;-1.02;88.10;100204.70;217440;1268;140644;-68
2023/12/27 22:19:20;;;;;;;37.80;19.40;;;;;;;-1.05;88.25;100199.91;217765;1268;140026;-70
2023/12/27 22:24:24;;;;;;;35.90;19.40;;;;;;;-1.01;88.62;100187.36;216066;1268;140135;-67
2023/12/27 22:29:28;;;;;;;37.20;19.00;;;;;;;-1.02;88.22;100167.57;216601;1271;141477;-70
2023/12/27 22:34:33;;;;;;;40.50;21.70;;;;;;;-1.06;87.97;100146.99;216219;1268;141197;-65
2023/12/27 22:39:38;;;;;;;43.80;21.50;;;;;;;-1.12;88.07;100140.67;215810;1267;140941;-65
2023/12/27 22:44:42;;;;;;;39.80;19.60;;;;;;;-1.14;88.45;100154.98;217479;1268;140981;-66
2023/12/27 22:49:45;;;;;;;42.10;20.50;;;;;;;-1.14;88.47;100154.59;215725;1269;140641;-66
2023/12/27 22:54:50;;;;;;;43.90;20.30;;;;;;;-1.11;88.74;100171.23;218167;1268;140193;-65
2023/12/27 22:59:53;;;;;;;30.60;16.30;;;;;;;-1.03;88.91;100154.27;218475;1266;141455;-68
2023/12/27 23:04:58;;;;;;;39.20;16.80;;;;;;;-0.95;89.18;100139.48;217237;1268;140307;-68
2023/12/27 23:10:04;;;;;;;37.60;20.20;;;;;;;-0.92;89.12;100091.23;216436;1268;152558;-67
2023/12/27 23:15:12;;;;;;;38.40;18.40;;;;;;;-0.88;89.16;100116.12;216114;1271;143188;-65